Time,TemperatureF,DewpointF,PressureIn,WindDirection,WindDirectionDegrees,WindSpeedMPH,WindSpeedGustMPH,Humidity,HourlyPrecipIn,Conditions,Clouds,dailyrainin,SoftwareType,DateUTC
2013-02-15 00:00:00,33.8,28.3,29.85,West,278,4.0,5.0,80,0.00,,,0.02,Wunderground v.1.15,2013-02-15 05:00:00,
2013-02-15 00:05:00,33.7,28.5,29.85,WSW,257,4.0,6.0,81,0.00,,,0.00,Wunderground v.1.15,2013-02-15 05:05:00,
2013-02-15 00:15:00,33.4,28.5,29.85,West,275,4.0,4.0,82,0.00,,,0.00,Wunderground v.1.15,2013-02-15 05:15:00,
2013-02-15 00:20:00,33.3,28.7,29.85,WNW,293,3.0,7.0,83,0.00,,,0.00,Wunderground v.1.15,2013-02-15 05:20:00,
2013-02-15 00:25:00,33.1,28.5,29.86,NW,323,4.0,7.0,83,0.00,,,0.00,Wunderground v.1.15,2013-02-15 05:25:00,
2013-02-15 00:30:00,33.1,28.5,29.86,West,269,4.0,4.0,83,0.00,,,0.00,Wunderground v.1.15,2013-02-15 05:30:00,
2013-02-15 00:40:00,32.9,27.4,29.87,West,281,6.0,6.0,80,0.00,,,0.00,Wunderground v.1.15,2013-02-15 05:40:00,
2013-02-15 00:50:00,32.7,26.9,29.87,WNW,290,4.0,4.0,79,0.00,,,0.00,Wunderground v.1.15,2013-02-15 05:50:00,
2013-02-15 01:00:00,32.5,26.7,29.87,WSW,249,4.0,4.0,79,0.00,,,0.00,Wunderground v.1.15,2013-02-15 06:00:00,
2013-02-15 01:10:00,32.3,26.5,29.88,WNW,286,5.0,5.0,79,0.00,,,0.00,Wunderground v.1.15,2013-02-15 06:10:00,
2013-02-15 01:20:00,32.0,25.9,29.88,WNW,295,6.0,18.0,78,0.00,,,0.00,Wunderground v.1.15,2013-02-15 06:20:00,
2013-02-15 01:25:00,31.8,25.7,29.88,WNW,284,5.0,18.0,78,0.00,,,0.00,Wunderground v.1.15,2013-02-15 06:25:00,
2013-02-15 01:35:00,31.7,25.9,29.88,West,274,4.0,18.0,79,0.00,,,0.00,Wunderground v.1.15,2013-02-15 06:35:00,
2013-02-15 01:40:00,31.6,25.5,29.88,WNW,293,3.0,3.0,78,0.00,,,0.00,Wunderground v.1.15,2013-02-15 06:40:00,
2013-02-15 01:45:00,31.5,25.4,29.89,NW,326,5.0,5.0,78,0.00,,,0.00,Wunderground v.1.15,2013-02-15 06:45:00,
2013-02-15 01:55:00,31.3,25.8,29.89,West,274,4.0,18.0,80,0.00,,,0.00,Wunderground v.1.15,2013-02-15 06:55:00,
2013-02-15 02:00:00,31.2,25.7,29.89,WNW,283,3.0,3.0,80,0.00,,,0.00,Wunderground v.1.15,2013-02-15 07:00:00,
2013-02-15 02:05:00,31.2,25.7,29.90,WNW,293,3.0,3.0,80,0.00,,,0.00,Wunderground v.1.15,2013-02-15 07:05:00,
2013-02-15 02:15:00,31.1,25.7,29.90,WSW,255,4.0,9.0,80,0.00,,,0.00,Wunderground v.1.15,2013-02-15 07:15:00,
2013-02-15 02:25:00,31.0,25.2,29.90,West,267,3.0,4.0,79,0.00,,,0.00,Wunderground v.1.15,2013-02-15 07:25:00,
2013-02-15 02:35:00,30.9,24.8,29.91,West,262,3.0,3.0,78,0.00,,,0.00,Wunderground v.1.15,2013-02-15 07:35:00,
2013-02-15 02:45:00,30.7,24.7,29.91,West,277,2.0,3.0,78,0.00,,,0.00,Wunderground v.1.15,2013-02-15 07:45:00,
2013-02-15 03:00:00,30.6,24.9,29.91,WNW,285,1.0,13.0,79,0.00,,,0.00,Wunderground v.1.15,2013-02-15 08:00:00,
2013-02-15 03:05:00,30.6,24.9,29.91,NNW,333,2.0,13.0,79,0.00,,,0.00,Wunderground v.1.15,2013-02-15 08:05:00,
2013-02-15 03:15:00,30.6,24.9,29.92,NW,305,2.0,13.0,79,0.00,,,0.00,Wunderground v.1.15,2013-02-15 08:15:00,
2013-02-15 03:25:00,30.5,24.8,29.92,NNW,334,3.0,5.0,79,0.00,,,0.00,Wunderground v.1.15,2013-02-15 08:25:00,
2013-02-15 03:35:00,30.2,24.5,29.92,West,274,3.0,13.0,79,0.00,,,0.00,Wunderground v.1.15,2013-02-15 08:35:00,
2013-02-15 03:45:00,29.6,24.2,29.92,WSW,247,1.0,4.0,80,0.00,,,0.00,Wunderground v.1.15,2013-02-15 08:45:00,
2013-02-15 03:55:00,29.0,23.6,29.92,NW,309,3.0,13.0,80,0.00,,,0.00,Wunderground v.1.15,2013-02-15 08:55:00,
2013-02-15 04:00:00,28.9,23.2,29.93,West,278,3.0,3.0,79,0.00,,,0.00,Wunderground v.1.15,2013-02-15 09:00:00,
2013-02-15 04:10:00,28.5,23.1,29.93,NW,314,2.0,2.0,80,0.00,,,0.00,Wunderground v.1.15,2013-02-15 09:10:00,
2013-02-15 04:15:00,28.3,22.9,29.93,WNW,300,1.0,2.0,80,0.00,,,0.00,Wunderground v.1.15,2013-02-15 09:15:00,
2013-02-15 04:25:00,28.0,22.6,29.93,West,264,2.0,2.0,80,0.00,,,0.00,Wunderground v.1.15,2013-02-15 09:25:00,
2013-02-15 04:35:00,27.6,22.2,29.94,NW,324,1.0,2.0,80,0.00,,,0.00,Wunderground v.1.15,2013-02-15 09:35:00,
2013-02-15 04:45:00,27.3,21.9,29.94,NNW,330,2.0,2.0,80,0.00,,,0.00,Wunderground v.1.15,2013-02-15 09:45:00,
2013-02-15 04:55:00,27.1,21.7,29.95,NW,304,2.0,6.0,80,0.00,,,0.00,Wunderground v.1.15,2013-02-15 09:55:00,
2013-02-15 05:00:00,27.0,21.7,29.95,West,274,2.0,6.0,80,0.00,,,0.00,Wunderground v.1.15,2013-02-15 10:00:00,
2013-02-15 05:05:00,27.0,21.7,29.95,NNW,333,2.0,6.0,80,0.00,,,0.00,Wunderground v.1.15,2013-02-15 10:05:00,
2013-02-15 05:15:00,26.9,21.3,29.96,WNW,284,3.0,6.0,79,0.00,,,0.00,Wunderground v.1.15,2013-02-15 10:15:00,
2013-02-15 05:25:00,26.7,20.8,29.96,NW,305,3.0,6.0,78,0.00,,,0.00,Wunderground v.1.15,2013-02-15 10:25:00,
2013-02-15 05:35:00,26.5,20.0,29.97,North,353,4.0,7.0,76,0.00,,,0.00,Wunderground v.1.15,2013-02-15 10:35:00,
2013-02-15 05:45:00,26.3,19.8,29.97,West,281,4.0,6.0,76,0.00,,,0.00,Wunderground v.1.15,2013-02-15 10:45:00,
2013-02-15 05:55:00,26.2,20.0,29.98,WNW,303,2.0,6.0,77,0.00,,,0.00,Wunderground v.1.15,2013-02-15 10:55:00,
2013-02-15 06:00:00,26.1,19.9,29.98,WNW,290,2.0,2.0,77,0.00,,,0.00,Wunderground v.1.15,2013-02-15 11:00:00,
2013-02-15 06:05:00,26.2,20.0,29.98,WNW,282,2.0,2.0,77,0.00,,,0.00,Wunderground v.1.15,2013-02-15 11:05:00,
2013-02-15 06:15:00,26.3,20.1,29.99,West,280,2.0,2.0,77,0.00,,,0.00,Wunderground v.1.15,2013-02-15 11:15:00,
2013-02-15 06:25:00,26.3,20.4,29.99,NW,307,3.0,3.0,78,0.00,,,0.00,Wunderground v.1.15,2013-02-15 11:25:00,
2013-02-15 06:35:00,26.2,20.3,30.00,WNW,295,3.0,3.0,78,0.00,,,0.00,Wunderground v.1.15,2013-02-15 11:35:00,
2013-02-15 06:40:00,26.2,20.3,30.00,NNW,330,3.0,3.0,78,0.00,,,0.00,Wunderground v.1.15,2013-02-15 11:40:00,
2013-02-15 06:45:00,26.2,20.3,30.00,West,274,3.0,8.0,78,0.00,,,0.00,Wunderground v.1.15,2013-02-15 11:45:00,
2013-02-15 06:55:00,26.0,20.1,30.00,WNW,290,3.0,12.0,78,0.00,,,0.00,Wunderground v.1.15,2013-02-15 11:55:00,
2013-02-15 07:05:00,25.9,19.7,30.01,WNW,283,3.0,3.0,77,0.00,,,0.00,Wunderground v.1.15,2013-02-15 12:05:00,
2013-02-15 07:10:00,25.9,19.7,30.01,WNW,285,2.0,2.0,77,0.00,,,0.00,Wunderground v.1.15,2013-02-15 12:10:00,
2013-02-15 07:20:00,25.7,19.5,30.01,WNW,294,3.0,12.0,77,0.00,,,0.00,Wunderground v.1.15,2013-02-15 12:20:00,
2013-02-15 07:25:00,25.6,19.4,30.01,West,277,3.0,12.0,77,0.00,,,0.00,Wunderground v.1.15,2013-02-15 12:25:00,
2013-02-15 07:35:00,25.3,18.8,30.02,WNW,283,3.0,12.0,76,0.00,,,0.00,Wunderground v.1.15,2013-02-15 12:35:00,
2013-02-15 07:40:00,25.1,18.3,30.02,NW,307,3.0,12.0,75,0.00,,,0.00,Wunderground v.1.15,2013-02-15 12:40:00,
2013-02-15 07:50:00,24.9,17.8,30.02,West,269,2.0,12.0,74,0.00,,,0.00,Wunderground v.1.15,2013-02-15 12:50:00,
2013-02-15 08:00:00,24.6,17.5,30.03,NW,321,2.0,2.0,74,0.00,,,0.00,Wunderground v.1.15,2013-02-15 13:00:00,
2013-02-15 08:10:00,24.7,17.3,30.03,NNW,339,2.0,2.0,73,0.00,,,0.00,Wunderground v.1.15,2013-02-15 13:10:00,
2013-02-15 08:20:00,24.5,16.1,30.04,NNW,334,3.0,3.0,70,0.00,,,0.00,Wunderground v.1.15,2013-02-15 13:20:00,
2013-02-15 08:30:00,24.3,15.9,30.05,NW,319,3.0,3.0,70,0.00,,,0.00,Wunderground v.1.15,2013-02-15 13:30:00,
2013-02-15 08:40:00,24.4,15.3,30.05,West,274,3.0,3.0,68,0.00,,,0.00,Wunderground v.1.15,2013-02-15 13:40:00,
2013-02-15 08:50:00,24.4,15.0,30.05,NW,304,3.0,3.0,67,0.00,,,0.00,Wunderground v.1.15,2013-02-15 13:50:00,
2013-02-15 08:55:00,24.4,14.7,30.05,NW,319,3.0,7.0,66,0.00,,,0.00,Wunderground v.1.15,2013-02-15 13:55:00,
2013-02-15 09:00:00,24.5,15.1,30.06,WNW,297,2.0,7.0,67,0.00,,,0.00,Wunderground v.1.15,2013-02-15 14:00:00,
2013-02-15 09:10:00,24.7,14.9,30.06,NNE,13,3.0,7.0,66,0.00,,,0.00,Wunderground v.1.15,2013-02-15 14:10:00,
2013-02-15 09:20:00,24.8,14.7,30.06,WNW,284,3.0,3.0,65,0.00,,,0.00,Wunderground v.1.15,2013-02-15 14:20:00,
2013-02-15 09:30:00,24.9,14.8,30.07,West,262,3.0,3.0,65,0.00,,,0.00,Wunderground v.1.15,2013-02-15 14:30:00,
2013-02-15 09:35:00,25.0,14.5,30.07,North,360,4.0,4.0,64,0.00,,,0.00,Wunderground v.1.15,2013-02-15 14:35:00,
2013-02-15 09:45:00,25.3,14.8,30.07,NW,304,3.0,7.0,64,0.00,,,0.00,Wunderground v.1.15,2013-02-15 14:45:00,
2013-02-15 09:50:00,25.3,15.2,30.07,WNW,288,3.0,3.0,65,0.00,,,0.00,Wunderground v.1.15,2013-02-15 14:50:00,
2013-02-15 10:00:00,25.4,15.3,30.07,WNW,282,3.0,3.0,65,0.00,,,0.00,Wunderground v.1.15,2013-02-15 15:00:00,
2013-02-15 10:05:00,25.3,15.2,30.07,NW,322,3.0,3.0,65,0.00,,,0.00,Wunderground v.1.15,2013-02-15 15:05:00,
2013-02-15 10:15:00,25.9,15.7,30.08,North,1,3.0,5.0,65,0.00,,,0.00,Wunderground v.1.15,2013-02-15 15:15:00,
2013-02-15 10:25:00,26.6,15.7,30.08,NW,316,3.0,4.0,63,0.00,,,0.00,Wunderground v.1.15,2013-02-15 15:25:00,
2013-02-15 10:35:00,26.6,15.7,30.07,WSW,245,4.0,7.0,63,0.00,,,0.00,Wunderground v.1.15,2013-02-15 15:35:00,
2013-02-15 10:45:00,27.0,16.1,30.08,NW,319,4.0,6.0,63,0.00,,,0.00,Wunderground v.1.15,2013-02-15 15:45:00,
2013-02-15 10:55:00,27.4,16.1,30.08,NNW,342,4.0,12.0,62,0.00,,,0.00,Wunderground v.1.15,2013-02-15 15:55:00,
2013-02-15 11:05:00,27.6,16.6,30.08,West,279,4.0,12.0,63,0.00,,,0.00,Wunderground v.1.15,2013-02-15 16:05:00,
2013-02-15 11:15:00,27.6,16.6,30.08,West,263,3.0,12.0,63,0.00,,,0.00,Wunderground v.1.15,2013-02-15 16:15:00,
2013-02-15 11:25:00,27.7,17.1,30.09,NW,311,2.0,12.0,64,0.00,,,0.00,Wunderground v.1.15,2013-02-15 16:25:00,
2013-02-15 11:35:00,27.4,17.2,30.08,West,280,2.0,12.0,65,0.00,,,0.00,Wunderground v.1.15,2013-02-15 16:35:00,
2013-02-15 11:45:00,27.3,16.7,30.08,West,264,3.0,12.0,64,0.00,,,0.00,Wunderground v.1.15,2013-02-15 16:45:00,
2013-02-15 11:55:00,27.5,16.5,30.08,NNW,335,3.0,4.0,63,0.00,,,0.00,Wunderground v.1.15,2013-02-15 16:55:00,
2013-02-15 12:00:00,27.5,16.5,30.08,West,280,3.0,4.0,63,0.00,,,0.00,Wunderground v.1.15,2013-02-15 17:00:00,
2013-02-15 12:10:00,27.2,15.9,30.08,West,266,5.0,5.0,62,0.00,,,0.00,Wunderground v.1.15,2013-02-15 17:10:00,
2013-02-15 12:15:00,27.2,15.9,30.08,WNW,298,5.0,5.0,62,0.00,,,0.00,Wunderground v.1.15,2013-02-15 17:15:00,
2013-02-15 12:25:00,27.6,15.9,30.08,WNW,287,3.0,3.0,61,0.00,,,0.00,Wunderground v.1.15,2013-02-15 17:25:00,
2013-02-15 12:35:00,27.7,15.2,30.08,NW,317,3.0,4.0,59,0.00,,,0.00,Wunderground v.1.15,2013-02-15 17:35:00,
2013-02-15 12:45:00,27.5,15.0,30.08,NW,314,4.0,5.0,59,0.00,,,0.00,Wunderground v.1.15,2013-02-15 17:45:00,
2013-02-15 12:55:00,27.7,14.4,30.08,NW,312,4.0,6.0,57,0.00,,,0.00,Wunderground v.1.15,2013-02-15 17:55:00,
2013-02-15 13:05:00,28.1,15.2,30.08,NNW,335,4.0,9.0,58,0.00,,,0.00,Wunderground v.1.15,2013-02-15 18:05:00,
2013-02-15 13:15:00,27.8,14.9,30.08,NNE,15,3.0,9.0,58,0.00,,,0.00,Wunderground v.1.15,2013-02-15 18:15:00,
2013-02-15 13:25:00,28.8,15.9,30.08,NNW,332,3.0,9.0,58,0.00,,,0.00,Wunderground v.1.15,2013-02-15 18:25:00,
2013-02-15 13:35:00,28.6,15.3,30.08,WNW,291,3.0,9.0,57,0.00,,,0.00,Wunderground v.1.15,2013-02-15 18:35:00,
2013-02-15 13:40:00,28.7,15.4,30.08,WNW,284,3.0,9.0,57,0.00,,,0.00,Wunderground v.1.15,2013-02-15 18:40:00,
2013-02-15 13:50:00,28.7,14.1,30.08,NNW,332,2.0,9.0,54,0.00,,,0.00,Wunderground v.1.15,2013-02-15 18:50:00,
2013-02-15 14:00:00,28.3,14.6,30.08,West,277,4.0,5.0,56,0.00,,,0.00,Wunderground v.1.15,2013-02-15 19:00:00,
2013-02-15 14:05:00,28.1,13.1,30.08,NNE,32,4.0,7.0,53,0.00,,,0.00,Wunderground v.1.15,2013-02-15 19:05:00,
2013-02-15 14:15:00,27.7,13.6,30.08,WNW,287,4.0,4.0,55,0.00,,,0.00,Wunderground v.1.15,2013-02-15 19:15:00,
2013-02-15 14:20:00,27.6,14.3,30.08,WNW,284,3.0,3.0,57,0.00,,,0.00,Wunderground v.1.15,2013-02-15 19:20:00,
2013-02-15 14:30:00,27.7,14.0,30.08,West,275,3.0,3.0,56,0.00,,,0.00,Wunderground v.1.15,2013-02-15 19:30:00,
2013-02-15 14:40:00,28.0,14.7,30.08,North,359,3.0,3.0,57,0.00,,,0.00,Wunderground v.1.15,2013-02-15 19:40:00,
2013-02-15 14:50:00,28.1,13.6,30.08,West,275,2.0,10.0,54,0.00,,,0.00,Wunderground v.1.15,2013-02-15 19:50:00,
2013-02-15 15:00:00,27.5,13.4,30.08,NNW,332,4.0,4.0,55,0.00,,,0.00,Wunderground v.1.15,2013-02-15 20:00:00,
2013-02-15 15:10:00,27.4,13.3,30.08,West,262,4.0,8.0,55,0.00,,,0.00,Wunderground v.1.15,2013-02-15 20:10:00,
2013-02-15 15:20:00,27.4,13.3,30.08,NNW,338,3.0,3.0,55,0.00,,,0.00,Wunderground v.1.15,2013-02-15 20:20:00,
2013-02-15 15:30:00,27.5,13.0,30.08,West,274,2.0,2.0,54,0.00,,,0.00,Wunderground v.1.15,2013-02-15 20:30:00,
2013-02-15 15:35:00,27.7,13.6,30.08,WNW,284,3.0,3.0,55,0.00,,,0.00,Wunderground v.1.15,2013-02-15 20:35:00,
2013-02-15 15:40:00,27.7,13.6,30.09,West,274,3.0,8.0,55,0.00,,,0.00,Wunderground v.1.15,2013-02-15 20:40:00,
2013-02-15 15:50:00,27.3,13.2,30.09,NW,321,3.0,8.0,55,0.00,,,0.00,Wunderground v.1.15,2013-02-15 20:50:00,
2013-02-15 16:00:00,27.4,12.9,30.09,NW,308,3.0,3.0,54,0.00,,,0.00,Wunderground v.1.15,2013-02-15 21:00:00,
2013-02-15 16:05:00,27.4,13.3,30.09,WNW,291,3.0,4.0,55,0.00,,,0.00,Wunderground v.1.15,2013-02-15 21:05:00,
2013-02-15 16:15:00,27.3,13.2,30.10,NNE,20,2.0,3.0,55,0.00,,,0.00,Wunderground v.1.15,2013-02-15 21:15:00,
2013-02-15 16:25:00,27.2,13.1,30.10,NW,309,2.0,4.0,55,0.00,,,0.00,Wunderground v.1.15,2013-02-15 21:25:00,
2013-02-15 16:30:00,27.5,13.4,30.10,NNE,13,3.0,4.0,55,0.00,,,0.00,Wunderground v.1.15,2013-02-15 21:30:00,
2013-02-15 16:40:00,27.5,13.4,30.10,WNW,300,2.0,4.0,55,0.00,,,0.00,Wunderground v.1.15,2013-02-15 21:40:00,
2013-02-15 16:45:00,27.4,13.3,30.10,NW,314,3.0,4.0,55,0.00,,,0.00,Wunderground v.1.15,2013-02-15 21:45:00,
2013-02-15 16:55:00,27.0,13.0,30.10,NW,309,2.0,10.0,55,0.00,,,0.00,Wunderground v.1.15,2013-02-15 21:55:00,
2013-02-15 17:05:00,26.7,13.9,30.11,WSW,242,2.0,10.0,58,0.00,,,0.00,Wunderground v.1.15,2013-02-15 22:05:00,
2013-02-15 17:15:00,26.7,13.5,30.11,NNW,327,2.0,6.0,57,0.00,,,0.00,Wunderground v.1.15,2013-02-15 22:15:00,
2013-02-15 17:25:00,26.5,13.7,30.11,North,354,2.0,10.0,58,0.00,,,0.00,Wunderground v.1.15,2013-02-15 22:25:00,
2013-02-15 17:35:00,26.2,13.4,30.11,NW,304,2.0,10.0,58,0.00,,,0.00,Wunderground v.1.15,2013-02-15 22:35:00,
2013-02-15 17:45:00,26.1,13.7,30.11,NW,314,2.0,10.0,59,0.00,,,0.00,Wunderground v.1.15,2013-02-15 22:45:00,
2013-02-15 17:55:00,26.0,13.6,30.11,NNW,333,3.0,10.0,59,0.00,,,0.00,Wunderground v.1.15,2013-02-15 22:55:00,
2013-02-15 18:00:00,26.0,13.2,30.11,West,276,2.0,2.0,58,0.00,,,0.00,Wunderground v.1.15,2013-02-15 23:00:00,
2013-02-15 18:10:00,25.8,13.0,30.11,WNW,290,2.0,2.0,58,0.00,,,0.00,Wunderground v.1.15,2013-02-15 23:10:00,
2013-02-15 18:15:00,25.7,12.9,30.12,NW,307,2.0,2.0,58,0.00,,,0.00,Wunderground v.1.15,2013-02-15 23:15:00,
2013-02-15 18:25:00,25.6,12.9,30.12,West,262,3.0,3.0,58,0.00,,,0.00,Wunderground v.1.15,2013-02-15 23:25:00,
2013-02-15 18:35:00,25.6,12.9,30.12,NNW,333,2.0,3.0,58,0.00,,,0.00,Wunderground v.1.15,2013-02-15 23:35:00,
2013-02-15 18:45:00,25.5,13.1,30.12,North,349,1.0,2.0,59,0.00,,,0.00,Wunderground v.1.15,2013-02-15 23:45:00,
2013-02-15 18:55:00,25.4,13.1,30.13,NNW,330,1.0,7.0,59,0.00,,,0.00,Wunderground v.1.15,2013-02-15 23:55:00,
2013-02-15 19:05:00,25.3,13.0,30.13,NNW,333,1.0,7.0,59,0.00,,,0.00,Wunderground v.1.15,2013-02-16 00:05:00,
2013-02-15 19:15:00,25.3,13.3,30.13,WNW,300,1.0,7.0,60,0.00,,,0.00,Wunderground v.1.15,2013-02-16 00:15:00,
2013-02-15 19:25:00,25.3,13.3,30.13,West,277,1.0,7.0,60,0.00,,,0.00,Wunderground v.1.15,2013-02-16 00:25:00,
2013-02-15 19:35:00,25.3,13.3,30.13,WNW,282,0.0,7.0,60,0.00,,,0.00,Wunderground v.1.15,2013-02-16 00:35:00,
2013-02-15 19:45:00,25.4,13.4,30.13,WSW,254,0.0,7.0,60,0.00,,,0.00,Wunderground v.1.15,2013-02-16 00:45:00,
2013-02-15 19:55:00,25.4,13.8,30.13,NNW,338,0.0,7.0,61,0.00,,,0.00,Wunderground v.1.15,2013-02-16 00:55:00,
2013-02-15 20:00:00,25.4,13.8,30.13,NNW,330,0.0,0.0,61,0.00,,,0.00,Wunderground v.1.15,2013-02-16 01:00:00,
2013-02-15 20:10:00,25.4,14.2,30.13,WNW,287,0.0,0.0,62,0.00,,,0.00,Wunderground v.1.15,2013-02-16 01:10:00,
2013-02-15 20:15:00,25.5,14.3,30.13,West,278,0.0,2.0,62,0.00,,,0.00,Wunderground v.1.15,2013-02-16 01:15:00,
2013-02-15 20:25:00,25.5,14.6,30.13,NNW,346,0.0,0.0,63,0.00,,,0.00,Wunderground v.1.15,2013-02-16 01:25:00,
2013-02-15 20:30:00,25.5,15.0,30.13,WNW,294,0.0,3.0,64,0.00,,,0.00,Wunderground v.1.15,2013-02-16 01:30:00,
2013-02-15 20:40:00,25.5,15.0,30.13,WSW,252,2.0,3.0,64,0.00,,,0.00,Wunderground v.1.15,2013-02-16 01:40:00,
2013-02-15 20:50:00,25.4,14.9,30.13,West,267,3.0,3.0,64,0.00,,,0.00,Wunderground v.1.15,2013-02-16 01:50:00,
2013-02-15 21:00:00,25.4,14.9,30.13,West,277,2.0,2.0,64,0.00,,,0.00,Wunderground v.1.15,2013-02-16 02:00:00,
2013-02-15 21:10:00,25.3,14.8,30.13,NW,304,2.0,3.0,64,0.00,,,0.00,Wunderground v.1.15,2013-02-16 02:10:00,
2013-02-15 21:20:00,25.1,14.6,30.14,West,280,2.0,2.0,64,0.00,,,0.00,Wunderground v.1.15,2013-02-16 02:20:00,
2013-02-15 21:25:00,25.0,14.5,30.13,WNW,300,1.0,3.0,64,0.00,,,0.00,Wunderground v.1.15,2013-02-16 02:25:00,
2013-02-15 21:35:00,24.8,14.3,30.14,West,261,1.0,3.0,64,0.00,,,0.00,Wunderground v.1.15,2013-02-16 02:35:00,
2013-02-15 21:45:00,24.7,14.6,30.14,West,279,2.0,3.0,65,0.00,,,0.00,Wunderground v.1.15,2013-02-16 02:45:00,
2013-02-15 21:55:00,24.6,14.9,30.14,West,273,2.0,3.0,66,0.00,,,0.00,Wunderground v.1.15,2013-02-16 02:55:00,
2013-02-15 22:00:00,24.6,15.2,30.14,West,270,2.0,2.0,67,0.00,,,0.00,Wunderground v.1.15,2013-02-16 03:00:00,
2013-02-15 22:05:00,24.6,15.5,30.14,NW,322,2.0,3.0,68,0.00,,,0.00,Wunderground v.1.15,2013-02-16 03:05:00,
2013-02-15 22:15:00,24.6,15.5,30.14,West,272,2.0,2.0,68,0.00,,,0.00,Wunderground v.1.15,2013-02-16 03:15:00,
2013-02-15 22:20:00,24.6,15.5,30.13,West,266,1.0,1.0,68,0.00,,,0.00,Wunderground v.1.15,2013-02-16 03:20:00,
2013-02-15 22:30:00,24.6,15.9,30.14,WNW,298,2.0,5.0,69,0.00,,,0.00,Wunderground v.1.15,2013-02-16 03:30:00,
2013-02-15 22:40:00,24.3,16.2,30.14,WNW,296,4.0,4.0,71,0.00,,,0.00,Wunderground v.1.15,2013-02-16 03:40:00,
2013-02-15 22:45:00,24.2,15.8,30.13,West,264,4.0,4.0,70,0.00,,,0.00,Wunderground v.1.15,2013-02-16 03:45:00,
2013-02-15 22:55:00,24.0,16.0,30.13,WNW,285,4.0,6.0,71,0.00,,,0.00,Wunderground v.1.15,2013-02-16 03:55:00,
2013-02-15 23:05:00,23.7,15.3,30.13,West,280,2.0,6.0,70,0.00,,,0.00,Wunderground v.1.15,2013-02-16 04:05:00,
2013-02-15 23:15:00,23.5,15.1,30.13,WNW,283,4.0,6.0,70,0.00,,,0.00,Wunderground v.1.15,2013-02-16 04:15:00,
2013-02-15 23:25:00,23.2,15.2,30.13,WNW,298,3.0,6.0,71,0.00,,,0.00,Wunderground v.1.15,2013-02-16 04:25:00,
2013-02-15 23:35:00,23.0,15.6,30.13,WSW,257,2.0,6.0,73,0.00,,,0.00,Wunderground v.1.15,2013-02-16 04:35:00,
2013-02-15 23:45:00,22.8,15.4,30.13,North,357,2.0,6.0,73,0.00,,,0.00,Wunderground v.1.15,2013-02-16 04:45:00,
2013-02-15 23:55:00,22.6,15.9,30.13,West,276,2.0,6.0,75,0.00,,,0.00,Wunderground v.1.15,2013-02-16 04:55:00,